createdAt,value
2022-10-01T00:00:14.836Z,32.17
2022-10-01T00:02:43.113Z,27.70
2022-10-01T00:05:11.814Z,22.23
2022-10-01T00:07:40.080Z,33.63
2022-10-01T00:10:10.973Z,24.70
2022-10-01T00:12:40.132Z,27.37
2022-10-01T00:15:13.364Z,27.50
2022-10-01T00:17:41.932Z,27.87
2022-10-01T00:20:14.744Z,26.40
2022-10-01T00:22:43.090Z,30.53
2022-10-01T00:25:12.062Z,29.10
2022-10-01T00:27:40.799Z,27.13
2022-10-01T00:30:11.562Z,24.33
2022-10-01T00:32:41.088Z,24.67
2022-10-01T00:35:10.199Z,23.37
2022-10-01T00:37:38.655Z,24.80
2022-10-01T00:40:08.414Z,23.77
2022-10-01T00:42:36.623Z,26.53
2022-10-01T00:45:05.286Z,23.70
2022-10-01T00:47:39.987Z,24.93
2022-10-01T00:50:16.350Z,26.73
2022-10-01T00:52:47.820Z,25.07
2022-10-01T00:55:20.341Z,23.87
2022-10-01T00:57:48.763Z,24.17
2022-10-01T01:00:16.968Z,23.20
2022-10-01T01:02:46.864Z,23.90
2022-10-01T01:05:15.480Z,25.83
2022-10-01T01:07:46.395Z,24.60
2022-10-01T01:10:20.247Z,25.07
2022-10-01T01:13:07.592Z,26.30
2022-10-01T01:15:42.283Z,27.60
2022-10-01T01:18:18.683Z,27.87
2022-10-01T01:21:22.395Z,24.47
2022-10-01T01:24:24.244Z,28.93
2022-10-01T01:27:03.497Z,37.83
2022-10-01T01:29:40.416Z,30.80
2022-10-01T01:32:14.988Z,29.57
2022-10-01T01:34:47.200Z,28.23
2022-10-01T01:37:20.316Z,24.83
2022-10-01T01:39:52.908Z,24.17
2022-10-01T01:42:28.147Z,24.00
2022-10-01T01:45:01.163Z,25.77
2022-10-01T01:47:32.876Z,23.20
2022-10-01T01:50:03.973Z,24.53
2022-10-01T01:52:33.723Z,24.47
2022-10-01T01:55:05.255Z,24.80
2022-10-01T01:57:33.488Z,28.03
2022-10-01T02:00:03.930Z,26.37
2022-10-01T02:02:39.223Z,27.73
2022-10-01T02:05:10.877Z,26.40
2022-10-01T02:08:00.496Z,24.60
2022-10-01T02:10:37.647Z,31.77
2022-10-01T02:13:18.619Z,27.37
2022-10-01T02:16:01.362Z,29.00
2022-10-01T02:18:37.177Z,29.17
2022-10-01T02:21:12.189Z,28.00
2022-10-01T02:23:44.996Z,25.57
2022-10-01T02:26:17.306Z,32.07
2022-10-01T02:28:48.739Z,29.30
2022-10-01T02:31:20.790Z,29.97
2022-10-01T02:33:52.703Z,34.07
2022-10-01T02:36:22.692Z,41.30
2022-10-01T02:38:54.201Z,43.47
2022-10-01T02:41:26.759Z,50.57
2022-10-01T02:43:58.913Z,56.27
2022-10-01T02:46:34.775Z,51.60
2022-10-01T02:49:04.334Z,66.30
2022-10-01T02:51:39.656Z,84.17
2022-10-01T02:54:13.988Z,110.47
2022-10-01T02:57:00.673Z,141.37
2022-10-01T02:59:28.807Z,193.10
2022-10-01T03:01:58.601Z,200.13
2022-10-01T03:04:26.947Z,160.20
2022-10-01T03:06:55.022Z,125.70
2022-10-01T03:09:23.252Z,146.13
2022-10-01T03:11:53.363Z,165.27
2022-10-01T03:14:21.594Z,191.37
2022-10-01T03:16:50.323Z,221.77
2022-10-01T03:19:19.874Z,310.53
2022-10-01T03:21:48.699Z,287.97
2022-10-01T03:24:16.880Z,386.90
2022-10-01T03:26:45.205Z,411.23
2022-10-01T03:29:13.363Z,460.57
2022-10-01T03:31:41.788Z,573.63
2022-10-01T03:34:10.054Z,522.50
2022-10-01T03:36:39.707Z,640.57
2022-10-01T03:39:07.897Z,678.53
2022-10-01T03:41:36.978Z,672.87
2022-10-01T03:44:05.877Z,686.77
2022-10-01T03:46:34.362Z,665.50
2022-10-01T03:49:02.772Z,649.23
2022-10-01T03:51:32.458Z,663.80
2022-10-01T03:54:02.652Z,670.23
2022-10-01T03:56:30.921Z,686.93
2022-10-01T03:58:59.117Z,633.27
2022-10-01T04:01:27.975Z,603.37
2022-10-01T04:03:56.253Z,558.77
2022-10-01T04:06:24.612Z,626.53
2022-10-01T04:08:52.848Z,587.70
2022-10-01T04:11:22.456Z,594.83
2022-10-01T04:13:52.090Z,630.30
2022-10-01T04:16:20.322Z,634.80
2022-10-01T04:18:49.676Z,592.33
2022-10-01T04:21:17.839Z,609.07
2022-10-01T04:23:46.262Z,591.20
2022-10-01T04:26:14.407Z,625.00
2022-10-01T04:28:45.130Z,640.53
2022-10-01T04:31:25.848Z,581.77
2022-10-01T04:33:55.510Z,656.27
2022-10-01T04:36:24.966Z,470.17
2022-10-01T04:38:56.690Z,517.47
2022-10-01T04:41:27.712Z,597.03
2022-10-01T04:43:59.321Z,609.53
2022-10-01T04:46:27.917Z,607.77
2022-10-01T04:48:56.081Z,582.97
2022-10-01T04:51:24.572Z,626.33
2022-10-01T04:53:52.974Z,621.63
2022-10-01T04:56:21.068Z,647.13
2022-10-01T04:58:49.307Z,630.70
2022-10-01T05:01:18.894Z,694.00
2022-10-01T05:03:47.718Z,654.73
2022-10-01T05:06:16.004Z,638.67
2022-10-01T05:08:44.128Z,674.43
2022-10-01T05:11:12.309Z,636.13
2022-10-01T05:13:40.404Z,652.10
2022-10-01T05:16:08.781Z,616.80
2022-10-01T05:18:39.201Z,681.27
2022-10-01T05:21:08.239Z,646.10
2022-10-01T05:23:36.337Z,629.23
2022-10-01T05:26:05.607Z,608.83
2022-10-01T05:28:34.044Z,632.90
2022-10-01T05:31:02.664Z,648.93
2022-10-01T05:33:31.966Z,625.93
2022-10-01T05:36:01.781Z,646.50
2022-10-01T05:38:30.066Z,653.70
2022-10-01T05:40:58.244Z,660.73
2022-10-01T05:43:27.006Z,712.57
2022-10-01T05:45:55.235Z,709.50
2022-10-01T05:48:23.439Z,666.47
2022-10-01T05:50:51.746Z,750.80
2022-10-01T05:53:22.355Z,694.57
2022-10-01T05:55:50.628Z,589.13
2022-10-01T05:58:18.811Z,437.67
2022-10-01T06:00:47.917Z,307.23
2022-10-01T06:03:16.225Z,289.67
2022-10-01T06:05:46.110Z,298.07
2022-10-01T06:08:15.677Z,250.00
2022-10-01T06:10:46.170Z,177.63
2022-10-01T06:13:17.848Z,163.63
2022-10-01T06:15:47.242Z,251.40
2022-10-01T06:18:15.509Z,111.23
2022-10-01T06:20:43.740Z,105.57
2022-10-01T06:23:13.540Z,86.50
2022-10-01T06:25:43.487Z,74.63
2022-10-01T06:28:14.687Z,60.80
2022-10-01T06:30:43.606Z,81.37
2022-10-01T06:33:13.709Z,55.77
2022-10-01T06:35:43.671Z,63.17
2022-10-01T06:38:12.253Z,68.80
2022-10-01T06:40:41.553Z,58.37
2022-10-01T06:43:10.679Z,61.47
2022-10-01T06:45:42.930Z,49.77
2022-10-01T06:48:15.113Z,47.03
2022-10-01T06:50:44.761Z,48.43
2022-10-01T06:53:13.660Z,54.47
2022-10-01T06:55:42.342Z,73.57
2022-10-01T06:58:14.745Z,42.83
2022-10-01T07:00:44.786Z,58.97
2022-10-01T07:03:16.065Z,68.30
2022-10-01T07:05:44.240Z,79.87
2022-10-01T07:08:13.007Z,72.80
2022-10-01T07:10:41.848Z,87.53
2022-10-01T07:13:12.067Z,75.07
2022-10-01T07:15:40.982Z,68.40
2022-10-01T07:18:10.838Z,44.93
2022-10-01T07:20:40.650Z,46.63
2022-10-01T07:23:13.299Z,42.80
2022-10-01T07:25:42.717Z,57.80
2022-10-01T07:28:16.440Z,35.40
2022-10-01T07:30:48.418Z,33.33
2022-10-01T07:33:20.756Z,79.67
2022-10-01T07:35:50.193Z,37.93
2022-10-01T07:38:18.394Z,37.33
2022-10-01T07:40:51.878Z,47.57
2022-10-01T07:43:20.012Z,33.10
2022-10-01T07:45:49.988Z,29.33
2022-10-01T07:48:19.233Z,44.10
2022-10-01T07:50:48.766Z,35.50
2022-10-01T07:53:17.634Z,42.40
2022-10-01T07:55:46.162Z,39.67
2022-10-01T07:58:14.470Z,41.37
2022-10-01T08:00:43.358Z,63.77
2022-10-01T08:03:12.670Z,46.33
2022-10-01T08:05:43.221Z,58.10
2022-10-01T08:08:12.702Z,78.10
2022-10-01T08:10:41.274Z,82.97
2022-10-01T08:13:14.218Z,83.60
2022-10-01T08:15:43.006Z,106.30
2022-10-01T08:18:12.317Z,148.70
2022-10-01T08:20:40.656Z,118.97
2022-10-01T08:23:10.589Z,169.63
2022-10-01T08:25:40.804Z,193.03
2022-10-01T08:28:10.007Z,191.30
2022-10-01T08:30:40.641Z,251.37
2022-10-01T08:33:11.953Z,261.77
2022-10-01T08:35:41.288Z,279.03
2022-10-01T08:38:09.820Z,304.20
2022-10-01T08:40:49.080Z,312.17
2022-10-01T08:43:31.798Z,395.67
2022-10-01T08:46:04.025Z,442.17
2022-10-01T08:48:56.064Z,385.50
2022-10-01T08:51:30.138Z,460.97
2022-10-01T08:54:09.012Z,448.67
2022-10-01T08:56:46.310Z,387.70
2022-10-01T08:59:27.993Z,378.17
2022-10-01T09:01:56.235Z,332.27
2022-10-01T09:04:25.114Z,194.33
2022-10-01T09:07:00.884Z,346.07
2022-10-01T09:09:48.794Z,478.53
2022-10-01T09:12:32.256Z,574.63
2022-10-01T09:15:16.186Z,571.33
2022-10-01T09:17:58.168Z,602.17
2022-10-01T09:20:28.093Z,489.13
2022-10-01T09:23:09.484Z,417.17
2022-10-01T09:25:39.966Z,524.17
2022-10-01T09:28:15.635Z,432.90
2022-10-01T09:30:48.671Z,542.87
2022-10-01T09:33:20.149Z,665.67
2022-10-01T09:35:52.732Z,636.70
2022-10-01T09:38:26.871Z,749.80
2022-10-01T09:40:56.635Z,605.17
2022-10-01T09:43:29.853Z,613.90
2022-10-01T09:45:58.598Z,685.63
2022-10-01T09:48:33.947Z,786.67
2022-10-01T09:51:09.380Z,906.10
2022-10-01T09:53:42.321Z,999.90
2022-10-01T09:56:15.547Z,999.90
2022-10-01T09:58:51.577Z,999.90
2022-10-01T10:01:27.981Z,999.90
2022-10-01T10:03:58.319Z,999.90
2022-10-01T10:06:29.450Z,999.90
2022-10-01T10:08:59.268Z,792.23
2022-10-01T10:11:29.597Z,451.70
2022-10-01T10:14:03.617Z,686.97
2022-10-01T10:16:35.665Z,666.53
2022-10-01T10:19:10.250Z,731.43
2022-10-01T10:21:38.923Z,844.10
2022-10-01T10:24:22.902Z,931.97
2022-10-01T10:26:55.447Z,782.87
2022-10-01T10:29:30.438Z,778.47
2022-10-01T10:32:00.566Z,901.83
2022-10-01T10:34:33.919Z,975.73
2022-10-01T10:37:06.825Z,956.87
2022-10-01T10:39:37.595Z,954.20
2022-10-01T10:42:07.573Z,902.37
2022-10-01T10:44:39.912Z,937.23
2022-10-01T10:47:11.796Z,905.47
2022-10-01T10:49:46.717Z,848.23
2022-10-01T10:52:26.047Z,628.60
2022-10-01T10:54:54.425Z,494.23
2022-10-01T10:57:27.756Z,355.90
2022-10-01T10:59:59.151Z,271.17
2022-10-01T11:02:30.043Z,86.97
2022-10-01T11:05:01.435Z,108.73
2022-10-01T11:07:30.880Z,134.67
2022-10-01T11:10:16.412Z,136.23
2022-10-01T11:13:06.608Z,156.83
2022-10-01T11:15:57.319Z,107.87
2022-10-01T11:18:48.374Z,114.63
2022-10-01T11:21:32.533Z,133.10
2022-10-01T11:24:14.521Z,141.77
2022-10-01T11:26:53.679Z,119.07
2022-10-01T11:29:39.290Z,145.57
2022-10-01T11:32:20.333Z,138.63
2022-10-01T11:35:09.095Z,168.30
2022-10-01T11:37:50.049Z,163.77
2022-10-01T11:40:25.500Z,204.10
2022-10-01T11:43:01.916Z,255.23
2022-10-01T11:45:33.663Z,272.23
2022-10-01T11:48:07.603Z,275.67
2022-10-01T11:50:39.464Z,267.03
2022-10-01T11:53:14.527Z,259.80
2022-10-01T11:56:09.735Z,267.53
2022-10-01T11:58:54.481Z,182.30
2022-10-01T12:01:34.487Z,203.50
2022-10-01T12:04:18.384Z,150.20
2022-10-01T12:06:55.285Z,183.10
2022-10-01T12:09:32.426Z,203.17
2022-10-01T12:12:05.933Z,215.97
2022-10-01T12:14:41.292Z,273.13
2022-10-01T12:17:18.347Z,194.63
2022-10-01T12:19:52.645Z,222.20
2022-10-01T12:22:28.715Z,237.60
2022-10-01T12:24:57.183Z,221.80
2022-10-01T12:27:36.374Z,208.73
2022-10-01T12:30:09.223Z,181.10
2022-10-01T12:32:48.642Z,175.33
2022-10-01T12:35:35.738Z,110.17
2022-10-01T12:38:18.360Z,164.77
2022-10-01T12:40:51.310Z,162.93
2022-10-01T12:43:37.552Z,168.20
2022-10-01T12:46:18.378Z,115.33
2022-10-01T12:49:00.778Z,120.53
2022-10-01T12:51:39.444Z,111.57
2022-10-01T12:54:22.078Z,140.03
2022-10-01T12:57:00.232Z,165.40
2022-10-01T12:59:45.660Z,162.63
2022-10-01T13:02:31.405Z,142.57
2022-10-01T13:05:19.926Z,160.17
2022-10-01T13:08:03.843Z,111.43
2022-10-01T13:10:48.748Z,84.30
2022-10-01T13:13:22.504Z,72.33
2022-10-01T13:15:59.664Z,69.63
2022-10-01T13:18:46.535Z,81.30
2022-10-01T13:21:23.920Z,65.13
2022-10-01T13:23:59.944Z,98.63
2022-10-01T13:26:33.947Z,143.87
2022-10-01T13:29:15.334Z,95.77
2022-10-01T13:31:56.769Z,103.83
2022-10-01T13:34:36.685Z,95.93
2022-10-01T13:37:16.410Z,94.80
2022-10-01T13:39:47.126Z,107.07
2022-10-01T13:42:23.008Z,112.77
2022-10-01T13:44:56.452Z,126.53
2022-10-01T13:47:25.711Z,154.63
2022-10-01T13:50:00.575Z,165.20
2022-10-01T13:52:28.935Z,154.33
2022-10-01T13:55:00.701Z,174.60
2022-10-01T13:57:34.152Z,132.27
2022-10-01T14:00:20.310Z,133.07
2022-10-01T14:03:01.969Z,119.40
2022-10-01T14:05:35.879Z,105.33
2022-10-01T14:08:13.420Z,129.83
2022-10-01T14:11:06.717Z,109.13
2022-10-01T14:14:01.940Z,112.07
2022-10-01T14:16:36.557Z,121.93
2022-10-01T14:19:05.608Z,128.33
2022-10-01T14:21:47.011Z,142.43
2022-10-01T14:24:26.242Z,122.77
2022-10-01T14:27:00.286Z,121.57
2022-10-01T14:29:50.420Z,124.27
2022-10-01T14:32:29.731Z,74.07
2022-10-01T14:35:12.243Z,91.50
2022-10-01T14:37:41.333Z,59.63
2022-10-01T14:40:17.874Z,83.17
2022-10-01T14:42:59.265Z,83.70
2022-10-01T14:45:27.706Z,69.07
2022-10-01T14:48:03.149Z,71.53
2022-10-01T14:50:34.728Z,89.17
2022-10-01T14:53:02.966Z,77.23
2022-10-01T14:55:32.377Z,107.17
2022-10-01T14:58:02.227Z,94.47
2022-10-01T15:00:32.197Z,96.87
2022-10-01T15:03:10.163Z,102.40
2022-10-01T15:05:38.583Z,126.40
2022-10-01T15:08:13.362Z,110.30
2022-10-01T15:10:45.256Z,100.27
2022-10-01T15:13:22.635Z,92.40
2022-10-01T15:15:51.472Z,117.73
2022-10-01T15:18:19.972Z,136.23
2022-10-01T15:20:55.391Z,161.67
2022-10-01T15:23:25.317Z,133.27
2022-10-01T15:25:56.125Z,137.20
2022-10-01T15:28:31.590Z,118.03
2022-10-01T15:31:01.587Z,139.40
2022-10-01T15:33:32.068Z,128.87
2022-10-01T15:36:02.896Z,154.53
2022-10-01T15:38:33.429Z,156.47
2022-10-01T15:41:26.753Z,167.67
2022-10-01T15:43:54.367Z,112.33
2022-10-01T15:46:31.334Z,134.43
2022-10-01T15:49:20.194Z,143.90
2022-10-01T15:52:14.706Z,95.17
2022-10-01T15:54:45.748Z,100.10
2022-10-01T15:57:19.412Z,114.40
2022-10-01T15:59:52.474Z,118.13
2022-10-01T16:02:28.907Z,133.33
2022-10-01T16:05:05.491Z,116.70
2022-10-01T16:07:34.752Z,108.70
2022-10-01T16:10:15.448Z,121.20
2022-10-01T16:12:43.580Z,98.77
2022-10-01T16:15:27.108Z,109.63
2022-10-01T16:17:57.375Z,93.77
2022-10-01T16:20:36.455Z,108.73
2022-10-01T16:23:33.696Z,84.93
2022-10-01T16:26:02.169Z,53.13
2022-10-01T16:28:33.425Z,64.37
2022-10-01T16:31:05.054Z,64.70
2022-10-01T16:33:33.264Z,88.33
2022-10-01T16:36:10.786Z,97.93
2022-10-01T16:38:39.083Z,86.47
2022-10-01T16:41:07.184Z,104.30
2022-10-01T16:43:35.357Z,102.43
2022-10-01T16:46:05.282Z,100.90
2022-10-01T16:48:33.588Z,77.67
2022-10-01T16:51:01.781Z,110.33
2022-10-01T16:53:33.229Z,124.13
2022-10-01T16:56:01.940Z,118.50
2022-10-01T16:58:30.596Z,109.30
2022-10-01T17:00:58.863Z,128.03
2022-10-01T17:03:28.418Z,153.50
2022-10-01T17:05:56.844Z,129.20
2022-10-01T17:08:24.999Z,112.43
2022-10-01T17:10:59.090Z,125.93
2022-10-01T17:13:28.897Z,118.00
2022-10-01T17:15:57.163Z,130.80
2022-10-01T17:18:26.178Z,122.17
2022-10-01T17:20:56.649Z,105.33
2022-10-01T17:23:25.295Z,106.00
2022-10-01T17:25:54.251Z,102.17
2022-10-01T17:28:23.927Z,100.13
2022-10-01T17:30:52.423Z,93.50
2022-10-01T17:33:21.727Z,106.70
2022-10-01T17:35:54.535Z,106.63
2022-10-01T17:38:24.648Z,90.90
2022-10-01T17:40:56.624Z,119.97
2022-10-01T17:43:25.281Z,80.20
2022-10-01T17:45:57.166Z,47.73
2022-10-01T17:48:26.166Z,48.57
2022-10-01T17:51:03.629Z,31.87
2022-10-01T17:53:39.685Z,41.47
2022-10-01T17:56:11.611Z,52.03
2022-10-01T17:58:44.783Z,79.97
2022-10-01T18:01:17.290Z,129.40
2022-10-01T18:03:46.056Z,183.77
2022-10-01T18:06:17.073Z,220.67
2022-10-01T18:08:55.945Z,234.63
2022-10-01T18:11:25.745Z,273.63
2022-10-01T18:13:54.099Z,354.03
2022-10-01T18:16:23.195Z,302.30
2022-10-01T18:21:45.024Z,403.93
2022-10-01T18:24:16.190Z,306.40
2022-10-01T18:26:45.733Z,473.47
2022-10-01T18:29:19.277Z,561.67
2022-10-01T18:31:53.559Z,794.93
2022-10-01T18:34:30.008Z,529.77
2022-10-01T18:37:05.412Z,597.63
2022-10-01T18:39:39.685Z,528.87
2022-10-01T18:42:15.907Z,614.97
2022-10-01T18:44:44.154Z,629.97
2022-10-01T18:47:23.890Z,601.47
2022-10-01T18:50:04.497Z,483.23
2022-10-01T18:52:46.815Z,441.93
2022-10-01T18:55:33.331Z,377.47
2022-10-01T18:58:20.089Z,322.97
2022-10-01T19:00:57.676Z,286.93
2022-10-01T19:04:00.104Z,246.53
2022-10-01T19:06:54.423Z,325.27
2022-10-01T19:09:37.662Z,351.30
2022-10-01T19:12:24.363Z,305.23
2022-10-01T19:15:02.617Z,292.20
2022-10-01T19:17:48.376Z,266.27
2022-10-01T19:20:30.174Z,282.03
2022-10-01T19:23:10.460Z,222.00
2022-10-01T19:25:44.328Z,186.60
2022-10-01T19:28:28.972Z,203.50
2022-10-01T19:31:07.440Z,228.57
2022-10-01T19:33:44.103Z,181.57
2022-10-01T19:36:19.942Z,190.10
2022-10-01T19:38:51.116Z,194.87
2022-10-01T19:41:25.286Z,218.67
2022-10-01T19:44:00.872Z,257.93
2022-10-01T19:46:35.003Z,258.03
2022-10-01T19:49:12.810Z,409.07
2022-10-01T19:51:46.983Z,226.63
2022-10-01T19:54:17.423Z,247.87
2022-10-01T19:56:48.756Z,170.40
2022-10-01T19:59:20.722Z,180.33
2022-10-01T20:01:55.187Z,131.50
2022-10-01T20:04:31.733Z,107.87
2022-10-01T20:07:05.855Z,118.87
2022-10-01T20:09:43.594Z,145.93
2022-10-01T20:12:22.405Z,132.33
2022-10-01T20:15:09.774Z,136.00
2022-10-01T20:17:51.216Z,125.37
2022-10-01T20:20:27.286Z,103.33
2022-10-01T20:23:11.419Z,75.10
2022-10-01T20:25:46.653Z,77.70
2022-10-01T20:28:24.972Z,67.03
2022-10-01T20:31:06.176Z,79.50
2022-10-01T20:33:43.786Z,86.93
2022-10-01T20:36:19.758Z,61.63
2022-10-01T20:38:54.456Z,53.33
2022-10-01T20:41:24.631Z,65.20
2022-10-01T20:43:56.936Z,46.03
2022-10-01T20:46:33.310Z,48.77
2022-10-01T20:49:05.366Z,57.53
2022-10-01T20:51:40.200Z,62.20
2022-10-01T20:54:12.226Z,57.43
2022-10-01T20:56:44.880Z,40.97
2022-10-01T20:59:19.234Z,66.97
2022-10-01T21:02:02.363Z,58.60
2022-10-01T21:04:35.184Z,44.80
2022-10-01T21:07:13.274Z,72.97
2022-10-01T21:09:47.220Z,43.00
2022-10-01T21:12:22.589Z,82.23
2022-10-01T21:14:53.986Z,119.50
2022-10-01T21:17:40.729Z,189.87
2022-10-01T21:20:42.744Z,243.33
2022-10-01T21:23:23.755Z,295.67
2022-10-01T21:26:05.025Z,585.53
2022-10-01T21:28:57.252Z,485.13
2022-10-01T21:31:39.298Z,431.47
2022-10-01T21:34:14.327Z,664.17
2022-10-01T21:36:56.750Z,720.27
2022-10-01T21:39:32.765Z,797.47
2022-10-01T21:42:14.959Z,835.83
2022-10-01T21:45:08.076Z,929.97
2022-10-01T21:48:13.458Z,972.73
2022-10-01T21:50:51.705Z,999.90
2022-10-01T21:53:52.450Z,324.43
2022-10-01T21:56:45.424Z,300.40
2022-10-01T21:59:26.951Z,770.10
2022-10-01T22:02:05.784Z,813.10
2022-10-01T22:04:41.367Z,143.17
2022-10-01T22:07:22.800Z,554.30
2022-10-01T22:10:04.124Z,754.90
2022-10-01T22:12:37.162Z,916.10
2022-10-01T22:15:21.089Z,999.90
2022-10-01T22:17:52.045Z,999.90
2022-10-01T22:20:22.799Z,988.33
2022-10-01T22:22:55.910Z,999.90
2022-10-01T22:25:24.048Z,999.90
2022-10-01T22:27:58.751Z,991.13
2022-10-01T22:30:28.796Z,924.93
2022-10-01T22:33:02.285Z,650.23
2022-10-01T22:35:34.996Z,442.30
2022-10-01T22:38:12.485Z,286.63
2022-10-01T22:40:46.224Z,228.63
2022-10-01T22:43:15.460Z,75.70
2022-10-01T22:45:59.253Z,94.97
2022-10-01T22:48:44.402Z,81.50
2022-10-01T22:51:27.170Z,78.13
2022-10-01T22:54:14.759Z,69.20
2022-10-01T22:56:51.922Z,70.60
2022-10-01T22:59:27.688Z,63.70
2022-10-01T23:02:05.223Z,39.30
2022-10-01T23:04:41.949Z,65.20
2022-10-01T23:07:21.025Z,61.87
2022-10-01T23:10:00.309Z,59.70
2022-10-01T23:12:39.328Z,94.00
2022-10-01T23:15:19.685Z,106.40
2022-10-01T23:17:58.850Z,139.60
2022-10-01T23:20:32.788Z,181.57
2022-10-01T23:23:25.384Z,235.13
2022-10-01T23:26:08.384Z,311.67
2022-10-01T23:28:49.656Z,439.77
2022-10-01T23:31:27.275Z,653.53
2022-10-01T23:34:05.874Z,768.43
2022-10-01T23:36:42.317Z,623.53
2022-10-01T23:39:31.484Z,647.87
2022-10-01T23:42:09.831Z,792.57
2022-10-01T23:44:47.779Z,905.37
2022-10-01T23:47:20.521Z,934.90
2022-10-01T23:49:54.961Z,950.07
2022-10-01T23:52:31.477Z,940.17
2022-10-01T23:55:17.997Z,999.90
2022-10-01T23:57:49.409Z,999.90
